createdAt,value
2018-05-10T00:00:19.959Z,9.80
2018-05-10T00:03:17.507Z,9.90
2018-05-10T00:06:14.672Z,9.80
2018-05-10T00:09:11.939Z,9.70
2018-05-10T00:12:09.863Z,9.70
2018-05-10T00:15:08.787Z,9.70
2018-05-10T00:18:05.861Z,9.70
2018-05-10T00:21:03.790Z,9.60
2018-05-10T00:24:01.861Z,9.50
2018-05-10T00:26:59.118Z,9.50
2018-05-10T00:29:56.628Z,9.40
2018-05-10T00:32:54.797Z,9.50
2018-05-10T00:35:53.217Z,9.50
2018-05-10T00:38:51.881Z,9.40
2018-05-10T00:41:49.477Z,9.40
2018-05-10T00:44:47.492Z,9.40
2018-05-10T00:47:46.386Z,9.40
2018-05-10T00:50:43.565Z,9.40
2018-05-10T00:53:41.446Z,9.40
2018-05-10T00:56:38.800Z,9.40
2018-05-10T00:59:35.923Z,9.40
2018-05-10T01:02:33.880Z,9.40
2018-05-10T01:05:31.791Z,9.40
2018-05-10T01:08:28.936Z,9.40
2018-05-10T01:11:28.138Z,9.40
2018-05-10T01:14:26.369Z,9.40
2018-05-10T01:17:23.459Z,9.40
2018-05-10T01:20:20.627Z,9.40
2018-05-10T01:23:18.929Z,9.30
2018-05-10T01:26:16.002Z,9.30
2018-05-10T01:29:13.705Z,9.40
2018-05-10T01:32:11.849Z,9.40
2018-05-10T01:35:21.186Z,9.40
2018-05-10T01:38:18.311Z,9.40
2018-05-10T01:41:15.625Z,9.30
2018-05-10T01:44:12.850Z,9.40
2018-05-10T01:47:09.976Z,9.40
2018-05-10T01:50:07.045Z,9.30
2018-05-10T01:53:04.697Z,9.30
2018-05-10T01:56:02.432Z,9.30
2018-05-10T01:59:00.582Z,9.30
2018-05-10T02:01:57.814Z,9.30
2018-05-10T02:04:56.076Z,9.30
2018-05-10T02:07:54.029Z,9.30
2018-05-10T02:10:51.363Z,9.30
2018-05-10T02:13:48.403Z,9.40
2018-05-10T02:16:45.858Z,9.40
2018-05-10T02:19:42.943Z,9.40
2018-05-10T02:22:40.729Z,9.40
2018-05-10T02:25:37.781Z,9.40
2018-05-10T02:28:36.442Z,9.40
2018-05-10T02:31:33.603Z,9.40
2018-05-10T02:34:30.760Z,9.50
2018-05-10T02:37:27.955Z,9.50
2018-05-10T02:40:25.215Z,9.40
2018-05-10T02:43:22.560Z,9.40
2018-05-10T02:46:19.660Z,9.40
2018-05-10T02:49:17.412Z,9.50
2018-05-10T02:52:15.454Z,9.40
2018-05-10T02:55:14.096Z,9.50
2018-05-10T02:58:11.120Z,9.50
2018-05-10T03:01:08.263Z,9.50
2018-05-10T03:04:05.505Z,9.50
2018-05-10T03:07:02.734Z,9.50
2018-05-10T03:10:00.653Z,9.60
2018-05-10T03:12:59.728Z,9.60
2018-05-10T03:15:56.840Z,9.60
2018-05-10T03:18:54.851Z,9.70
2018-05-10T03:21:52.007Z,9.70
2018-05-10T03:24:49.202Z,9.80
2018-05-10T03:27:46.302Z,9.80
2018-05-10T03:30:44.452Z,9.80
2018-05-10T03:33:42.458Z,9.80
2018-05-10T03:36:40.633Z,9.90
2018-05-10T03:39:38.594Z,10.00
2018-05-10T03:42:35.985Z,10.00
2018-05-10T03:45:34.402Z,10.10
2018-05-10T03:48:32.487Z,10.00
2018-05-10T03:51:29.857Z,10.20
2018-05-10T03:54:27.837Z,10.20
2018-05-10T03:57:25.207Z,10.30
2018-05-10T04:00:23.309Z,10.30
2018-05-10T04:07:21.422Z,10.30
2018-05-10T04:10:30.541Z,10.40
2018-05-10T04:13:27.999Z,10.40
2018-05-10T04:16:25.945Z,10.50
2018-05-10T04:19:23.977Z,10.60
2018-05-10T04:22:21.823Z,10.70
2018-05-10T04:25:18.881Z,10.70
2018-05-10T04:28:16.733Z,10.80
2018-05-10T04:31:14.701Z,11.00
2018-05-10T04:34:11.899Z,11.00
2018-05-10T04:37:09.035Z,11.20
2018-05-10T04:40:06.191Z,11.50
2018-05-10T04:43:04.180Z,11.40
2018-05-10T04:46:01.159Z,11.40
2018-05-10T04:48:59.271Z,11.50
2018-05-10T04:51:56.629Z,11.60
2018-05-10T04:54:53.790Z,11.60
2018-05-10T04:57:50.865Z,11.70
2018-05-10T05:00:48.232Z,11.70
2018-05-10T05:03:46.541Z,11.70
2018-05-10T05:06:44.506Z,11.80
2018-05-10T05:09:42.380Z,11.90
2018-05-10T05:12:39.589Z,12.00
2018-05-10T05:15:37.689Z,12.20
2018-05-10T05:18:35.684Z,12.20
2018-05-10T05:21:32.899Z,12.40
2018-05-10T05:24:30.853Z,12.50
2018-05-10T05:27:28.869Z,12.50
2018-05-10T05:30:28.301Z,12.70
2018-05-10T05:33:25.706Z,12.80
2018-05-10T05:36:23.623Z,12.80
2018-05-10T05:39:20.720Z,12.90
2018-05-10T05:42:18.802Z,13.10
2018-05-10T05:45:15.923Z,13.00
2018-05-10T05:48:13.779Z,13.10
2018-05-10T05:51:11.858Z,13.30
2018-05-10T05:54:09.606Z,13.50
2018-05-10T05:57:06.966Z,13.60
2018-05-10T06:00:04.880Z,13.60
2018-05-10T06:03:03.029Z,13.80
2018-05-10T06:06:00.915Z,13.80
2018-05-10T06:08:58.983Z,14.00
2018-05-10T06:11:56.074Z,14.20
2018-05-10T06:14:54.064Z,14.30
2018-05-10T06:17:51.040Z,14.30
2018-05-10T06:20:49.027Z,14.30
2018-05-10T06:23:46.069Z,14.40
2018-05-10T06:26:43.966Z,14.50
2018-05-10T06:29:41.165Z,14.60
2018-05-10T06:32:39.104Z,14.80
2018-05-10T06:35:37.227Z,15.50
2018-05-10T06:38:34.992Z,15.50
2018-05-10T06:41:33.118Z,16.50
2018-05-10T06:44:31.196Z,18.20
2018-05-10T06:47:29.039Z,19.80
2018-05-10T06:50:26.965Z,20.70
2018-05-10T06:53:24.871Z,20.60
2018-05-10T06:56:22.132Z,21.40
2018-05-10T06:59:19.988Z,21.40
2018-05-10T07:02:17.152Z,20.90
2018-05-10T07:05:15.175Z,21.00
2018-05-10T07:08:13.103Z,20.70
2018-05-10T07:11:10.398Z,20.90
2018-05-10T07:14:08.064Z,21.00
2018-05-10T07:17:05.880Z,21.70
2018-05-10T07:20:04.082Z,21.70
2018-05-10T07:23:01.752Z,22.10
2018-05-10T07:25:59.548Z,22.80
2018-05-10T07:28:57.966Z,22.80
2018-05-10T07:31:55.336Z,22.60
2018-05-10T07:34:52.390Z,23.60
2018-05-10T07:37:50.987Z,23.40
2018-05-10T07:40:48.074Z,23.30
2018-05-10T07:43:45.221Z,23.60
2018-05-10T07:46:43.253Z,22.40
2018-05-10T07:49:41.245Z,22.80
2018-05-10T07:52:39.071Z,22.30
2018-05-10T07:55:37.442Z,22.00
2018-05-10T07:58:35.217Z,22.00
2018-05-10T08:01:33.169Z,23.40
2018-05-10T08:04:31.367Z,23.40
2018-05-10T08:07:29.445Z,24.00
2018-05-10T08:10:41.499Z,23.70
2018-05-10T08:13:39.507Z,24.10
2018-05-10T08:16:37.178Z,24.00
2018-05-10T08:19:36.165Z,23.90
2018-05-10T08:22:33.364Z,24.40
2018-05-10T08:25:32.104Z,23.70
2018-05-10T08:28:29.998Z,23.20
2018-05-10T08:31:27.899Z,23.50
2018-05-10T08:34:25.066Z,23.50
2018-05-10T08:37:23.076Z,23.80
2018-05-10T08:40:20.972Z,23.00
2018-05-10T08:43:17.984Z,23.00
2018-05-10T08:46:15.971Z,22.70
2018-05-10T08:49:13.726Z,22.40
2018-05-10T08:52:11.488Z,23.60
2018-05-10T08:55:09.336Z,23.40
2018-05-10T08:58:07.425Z,23.70
2018-05-10T09:01:09.056Z,24.80
2018-05-10T09:04:07.137Z,24.60
2018-05-10T09:07:05.335Z,24.50
2018-05-10T09:10:03.047Z,23.90
2018-05-10T09:13:01.951Z,24.00
2018-05-10T09:16:00.727Z,23.40
2018-05-10T09:18:57.877Z,23.40
2018-05-10T09:21:56.019Z,23.40
2018-05-10T09:24:54.015Z,23.30
2018-05-10T09:27:51.957Z,23.20
2018-05-10T09:30:49.849Z,23.40
2018-05-10T09:33:48.864Z,23.20
2018-05-10T09:36:46.573Z,23.00
2018-05-10T09:39:44.336Z,23.30
2018-05-10T09:42:42.048Z,23.90
2018-05-10T09:45:40.828Z,24.90
2018-05-10T09:48:38.710Z,24.90
2018-05-10T09:51:37.732Z,25.00
2018-05-10T09:54:35.702Z,25.00
2018-05-10T09:57:34.810Z,24.60
2018-05-10T10:00:36.582Z,24.80
2018-05-10T10:03:34.356Z,24.50
2018-05-10T10:06:32.019Z,24.70
2018-05-10T10:09:29.797Z,24.60
2018-05-10T10:12:27.479Z,24.80
2018-05-10T10:15:25.960Z,24.30
2018-05-10T10:18:23.057Z,24.30
2018-05-10T10:21:20.856Z,23.70
2018-05-10T10:24:18.079Z,23.40
2018-05-10T10:27:16.010Z,23.40
2018-05-10T10:30:13.876Z,24.10
2018-05-10T10:33:12.008Z,24.30
2018-05-10T10:36:09.661Z,24.00
2018-05-10T10:39:07.706Z,23.90
2018-05-10T10:42:05.693Z,23.90
2018-05-10T10:45:03.476Z,24.00
2018-05-10T10:48:01.348Z,24.30
2018-05-10T10:50:59.446Z,24.70
2018-05-10T10:53:56.616Z,24.30
2018-05-10T10:56:54.680Z,24.60
2018-05-10T10:59:52.516Z,23.90
2018-05-10T11:02:50.353Z,23.70
2018-05-10T11:05:48.192Z,23.80
2018-05-10T11:08:46.121Z,23.40
2018-05-10T11:11:43.754Z,23.90
2018-05-10T11:14:41.620Z,24.50
2018-05-10T11:17:39.337Z,24.50
2018-05-10T11:20:37.106Z,24.40
2018-05-10T11:23:35.117Z,23.60
2018-05-10T11:26:32.752Z,23.30
2018-05-10T11:29:30.717Z,23.80
2018-05-10T11:32:28.495Z,23.80
2018-05-10T11:35:25.593Z,23.80
2018-05-10T11:38:24.551Z,24.10
2018-05-10T11:41:22.630Z,24.10
2018-05-10T11:44:20.674Z,23.20
2018-05-10T11:47:19.477Z,23.20
2018-05-10T11:50:17.481Z,23.20
2018-05-10T11:53:15.468Z,22.80
2018-05-10T11:56:13.470Z,22.80
2018-05-10T11:59:11.422Z,22.00
2018-05-10T12:02:09.329Z,21.90
2018-05-10T12:05:07.224Z,22.60
2018-05-10T12:08:05.054Z,22.70
2018-05-10T12:11:03.023Z,22.40
2018-05-10T12:14:01.106Z,22.10
2018-05-10T12:16:58.168Z,22.10
2018-05-10T12:19:56.908Z,22.10
2018-05-10T12:22:54.822Z,22.10
2018-05-10T12:25:52.775Z,22.10
2018-05-10T12:28:50.438Z,22.10
2018-05-10T12:31:48.186Z,22.00
2018-05-10T12:34:45.967Z,21.50
2018-05-10T12:37:43.842Z,21.70
2018-05-10T12:40:42.082Z,21.70
2018-05-10T12:43:39.598Z,21.50
2018-05-10T12:46:37.393Z,21.50
2018-05-10T12:49:34.464Z,21.20
2018-05-10T12:52:32.254Z,21.50
2018-05-10T12:55:29.902Z,21.70
2018-05-10T12:58:27.660Z,21.70
2018-05-10T13:01:25.492Z,22.20
2018-05-10T13:04:23.202Z,22.40
2018-05-10T13:07:21.185Z,22.00
2018-05-10T13:10:21.849Z,22.40
2018-05-10T13:13:19.904Z,22.20
2018-05-10T13:16:17.849Z,22.30
2018-05-10T13:19:15.633Z,21.90
2018-05-10T13:22:13.236Z,21.90
2018-05-10T13:25:11.441Z,21.90
2018-05-10T13:28:09.811Z,21.60
2018-05-10T13:31:08.270Z,21.70
2018-05-10T13:34:06.434Z,21.70
2018-05-10T13:37:04.961Z,21.10
2018-05-10T13:40:02.143Z,21.10
2018-05-10T13:42:59.244Z,21.20
2018-05-10T13:45:56.358Z,21.40
2018-05-10T13:48:53.505Z,21.80
2018-05-10T13:51:51.189Z,21.30
2018-05-10T13:54:49.042Z,21.30
2018-05-10T13:57:46.903Z,20.80
2018-05-10T14:00:45.826Z,20.50
2018-05-10T14:03:43.621Z,20.50
2018-05-10T14:06:41.409Z,20.60
2018-05-10T14:09:39.170Z,20.90
2018-05-10T14:12:36.475Z,20.90
2018-05-10T14:15:34.439Z,20.70
2018-05-10T14:18:32.423Z,20.70
2018-05-10T14:21:30.197Z,20.70
2018-05-10T14:24:28.198Z,20.60
2018-05-10T14:27:26.195Z,20.50
2018-05-10T14:30:24.136Z,20.50
2018-05-10T14:33:21.174Z,20.60
2018-05-10T14:36:18.917Z,20.50
2018-05-10T14:39:16.776Z,20.80
2018-05-10T14:42:15.610Z,20.80
2018-05-10T14:45:12.826Z,20.80
2018-05-10T14:48:10.867Z,20.90
2018-05-10T14:51:09.075Z,20.80
2018-05-10T14:54:06.394Z,20.80
2018-05-10T14:57:04.338Z,20.90
2018-05-10T15:00:01.680Z,20.70
2018-05-10T15:02:59.423Z,20.80
2018-05-10T15:05:56.787Z,20.80
2018-05-10T15:08:53.836Z,20.50
2018-05-10T15:11:52.889Z,20.90
2018-05-10T15:14:50.627Z,20.60
2018-05-10T15:17:48.748Z,20.40
2018-05-10T15:20:46.780Z,20.10
2018-05-10T15:23:45.087Z,20.10
2018-05-10T15:26:42.797Z,20.20
2018-05-10T15:29:41.706Z,20.10
2018-05-10T15:32:39.663Z,20.20
2018-05-10T15:35:37.791Z,20.20
2018-05-10T15:38:35.568Z,20.20
2018-05-10T15:41:34.534Z,20.00
2018-05-10T15:44:31.823Z,19.80
2018-05-10T15:47:29.776Z,19.60
2018-05-10T15:50:27.713Z,19.60
2018-05-10T15:53:25.661Z,19.50
2018-05-10T15:56:23.655Z,19.60
2018-05-10T15:59:21.459Z,19.50
2018-05-10T16:02:20.231Z,19.50
2018-05-10T16:05:18.205Z,19.40
2018-05-10T16:08:16.966Z,19.30
2018-05-10T16:11:14.867Z,19.30
2018-05-10T16:14:14.074Z,19.20
2018-05-10T16:17:11.985Z,19.10
2018-05-10T16:20:09.827Z,19.10
2018-05-10T16:23:07.756Z,19.00
2018-05-10T16:26:05.596Z,19.10
2018-05-10T16:29:03.416Z,19.10
2018-05-10T16:32:01.443Z,18.80
2018-05-10T16:34:59.375Z,18.70
2018-05-10T16:37:57.245Z,18.70
2018-05-10T16:40:55.061Z,18.60
2018-05-10T16:43:54.080Z,18.40
2018-05-10T16:46:52.134Z,18.50
2018-05-10T16:49:49.880Z,18.50
2018-05-10T16:52:47.825Z,18.30
2018-05-10T16:55:46.560Z,18.10
2018-05-10T16:58:44.480Z,18.00
2018-05-10T17:01:42.481Z,18.00
2018-05-10T17:04:39.667Z,18.00
2018-05-10T17:07:39.451Z,18.00
2018-05-10T17:10:37.330Z,17.80
2018-05-10T17:13:35.224Z,17.80
2018-05-10T17:16:33.065Z,17.80
2018-05-10T17:19:30.843Z,17.70
2018-05-10T17:22:28.148Z,17.70
2018-05-10T17:25:26.841Z,17.40
2018-05-10T17:28:24.897Z,17.50
2018-05-10T17:31:22.890Z,17.40
2018-05-10T17:34:20.856Z,17.40
2018-05-10T17:37:18.596Z,17.20
2018-05-10T17:40:15.707Z,17.30
2018-05-10T17:43:14.255Z,17.20
2018-05-10T17:46:11.620Z,17.10
2018-05-10T17:49:09.539Z,17.00
2018-05-10T17:52:07.328Z,16.80
2018-05-10T17:55:05.663Z,16.80
2018-05-10T17:58:03.060Z,16.70
2018-05-10T18:01:00.752Z,16.70
2018-05-10T18:03:58.621Z,16.70
2018-05-10T18:06:55.742Z,16.60
2018-05-10T18:09:53.676Z,16.60
2018-05-10T18:12:50.797Z,16.60
2018-05-10T18:15:48.820Z,16.50
2018-05-10T18:18:46.882Z,16.40
2018-05-10T18:21:44.787Z,16.30
2018-05-10T18:24:42.768Z,16.30
2018-05-10T18:27:39.802Z,16.20
2018-05-10T18:30:37.785Z,16.20
2018-05-10T18:33:35.779Z,16.10
2018-05-10T18:36:33.732Z,16.00
2018-05-10T18:39:31.641Z,16.00
2018-05-10T18:42:29.375Z,16.00
2018-05-10T18:45:28.727Z,15.90
2018-05-10T18:48:26.942Z,15.80
2018-05-10T18:51:25.680Z,15.70
2018-05-10T18:54:23.819Z,15.60
2018-05-10T18:57:22.587Z,15.50
2018-05-10T19:00:21.556Z,15.40
2018-05-10T19:03:19.691Z,15.40
2018-05-10T19:06:17.574Z,15.30
2018-05-10T19:09:15.546Z,15.30
2018-05-10T19:12:12.596Z,15.20
2018-05-10T19:15:10.699Z,15.20
2018-05-10T19:18:08.514Z,15.10
2018-05-10T19:21:06.907Z,15.20
2018-05-10T19:24:04.820Z,15.10
2018-05-10T19:27:02.129Z,15.10
2018-05-10T19:29:59.963Z,15.00
2018-05-10T19:32:58.749Z,15.00
2018-05-10T19:35:55.835Z,14.90
2018-05-10T19:38:52.946Z,14.90
2018-05-10T19:41:51.472Z,14.90
2018-05-10T19:44:49.783Z,14.90
2018-05-10T19:47:47.755Z,14.80
2018-05-10T19:50:45.137Z,14.80
2018-05-10T19:53:42.894Z,14.80
2018-05-10T19:56:40.011Z,14.80
2018-05-10T19:59:37.918Z,14.70
2018-05-10T20:02:35.698Z,14.70
2018-05-10T20:05:32.792Z,14.70
2018-05-10T20:08:30.805Z,14.70
2018-05-10T20:11:28.526Z,14.60
2018-05-10T20:14:26.351Z,14.50
2018-05-10T20:17:24.651Z,14.60
2018-05-10T20:20:22.497Z,14.50
2018-05-10T20:23:20.372Z,14.50
2018-05-10T20:26:18.388Z,14.50
2018-05-10T20:29:16.346Z,14.50
2018-05-10T20:32:14.039Z,14.40
2018-05-10T20:35:11.552Z,14.50
2018-05-10T20:38:08.598Z,14.40
2018-05-10T20:41:06.632Z,14.50
2018-05-10T20:44:03.723Z,14.40
2018-05-10T20:47:01.536Z,14.50
2018-05-10T20:49:58.490Z,14.40
2018-05-10T20:52:56.553Z,14.40
2018-05-10T20:55:54.598Z,14.30
2018-05-10T20:58:52.404Z,14.50
2018-05-10T21:01:49.574Z,14.50
2018-05-10T21:04:47.697Z,14.50
2018-05-10T21:07:45.289Z,14.40
2018-05-10T21:10:43.370Z,14.40
2018-05-10T21:13:40.476Z,14.50
2018-05-10T21:16:38.435Z,14.40
2018-05-10T21:19:36.266Z,14.40
2018-05-10T21:22:35.062Z,14.40
2018-05-10T21:25:33.148Z,14.40
2018-05-10T21:28:31.054Z,14.40
2018-05-10T21:31:28.999Z,14.40
2018-05-10T21:34:26.002Z,14.30
2018-05-10T21:37:24.224Z,14.30
2018-05-10T21:40:21.597Z,14.30
2018-05-10T21:43:18.902Z,14.30
2018-05-10T21:46:16.711Z,14.30
2018-05-10T21:49:13.750Z,14.30
2018-05-10T21:52:10.963Z,14.40
2018-05-10T21:55:08.817Z,14.30
2018-05-10T21:58:06.870Z,14.40
2018-05-10T22:01:04.016Z,14.30
2018-05-10T22:04:01.853Z,14.30
2018-05-10T22:06:58.952Z,14.20
2018-05-10T22:09:56.879Z,14.30
2018-05-10T22:12:53.944Z,14.20
2018-05-10T22:15:52.052Z,14.20
2018-05-10T22:18:50.863Z,14.20
2018-05-10T22:21:48.908Z,14.20
2018-05-10T22:24:46.872Z,14.20
2018-05-10T22:27:44.678Z,14.30
2018-05-10T22:30:43.508Z,14.20
2018-05-10T22:33:41.539Z,14.20
2018-05-10T22:36:39.317Z,14.20
2018-05-10T22:39:37.072Z,14.10
2018-05-10T22:42:35.147Z,14.00
2018-05-10T22:45:32.184Z,14.00
2018-05-10T22:48:30.120Z,14.00
2018-05-10T22:51:27.162Z,14.00
2018-05-10T22:54:25.889Z,13.90
2018-05-10T22:57:23.829Z,13.90
2018-05-10T23:00:20.847Z,13.90
2018-05-10T23:03:18.789Z,13.90
2018-05-10T23:06:16.822Z,13.80
2018-05-10T23:09:14.541Z,13.80
2018-05-10T23:12:12.480Z,13.70
2018-05-10T23:15:10.342Z,13.70
2018-05-10T23:18:08.232Z,13.70
2018-05-10T23:21:05.963Z,13.70
2018-05-10T23:24:03.896Z,13.70
2018-05-10T23:27:01.213Z,13.80
2018-05-10T23:29:58.249Z,13.70
2018-05-10T23:32:56.211Z,13.70
2018-05-10T23:35:53.314Z,13.70
2018-05-10T23:38:50.988Z,13.70
2018-05-10T23:41:48.890Z,13.70
2018-05-10T23:44:46.812Z,13.60
2018-05-10T23:47:44.594Z,13.50
2018-05-10T23:50:42.552Z,13.50
2018-05-10T23:53:40.555Z,13.60
2018-05-10T23:56:38.193Z,13.40
2018-05-10T23:59:36.120Z,13.40
